createdAt,value
2022-08-07T01:04:58.313Z,0.00
2022-08-07T01:10:05.935Z,0.00
2022-08-07T01:15:00.773Z,0.00
2022-08-07T01:19:54.332Z,0.00
2022-08-07T01:24:52.201Z,0.00
2022-08-07T01:29:52.115Z,0.00
2022-08-07T01:34:52.124Z,0.00
2022-08-07T01:39:51.964Z,0.00
2022-08-07T01:44:52.021Z,0.00
2022-08-07T01:49:54.576Z,0.00
2022-08-07T01:54:54.840Z,0.00
2022-08-07T01:59:51.815Z,0.00
2022-08-07T02:04:56.427Z,0.00
2022-08-07T02:09:58.522Z,0.00
2022-08-07T02:14:51.465Z,0.00
2022-08-07T02:20:07.033Z,0.00
2022-08-07T02:24:52.390Z,0.00
2022-08-07T02:29:54.622Z,0.00
2022-08-07T02:34:51.476Z,0.00
2022-08-07T02:40:02.238Z,0.00
2022-08-07T02:44:52.298Z,0.00
2022-08-07T02:49:58.592Z,0.00
2022-08-07T02:54:54.979Z,0.00
2022-08-07T04:16:31.546Z,191.25
2022-08-07T04:21:20.893Z,326.25
2022-08-07T04:26:21.979Z,528.75
2022-08-07T04:31:38.463Z,461.25
2022-08-07T04:36:22.697Z,540.00
2022-08-07T04:41:20.616Z,489.38
2022-08-07T04:46:20.094Z,506.25
2022-08-07T04:51:20.533Z,517.50
2022-08-07T04:58:11.571Z,601.88
2022-08-07T05:01:20.546Z,596.25
2022-08-07T05:06:22.299Z,658.12
2022-08-07T05:11:26.221Z,703.12
2022-08-07T05:16:20.446Z,765.00
2022-08-07T05:22:00.304Z,815.62
2022-08-07T05:26:24.492Z,905.62
2022-08-07T05:31:18.941Z,1001.25
2022-08-07T05:36:22.343Z,1305.00
2022-08-07T05:41:19.054Z,1383.75
2022-08-07T05:46:18.893Z,967.50
2022-08-07T05:51:18.688Z,950.62
2022-08-07T05:56:18.894Z,1057.50
2022-08-07T06:01:18.710Z,1164.38
2022-08-07T06:06:21.534Z,1237.50
2022-08-07T06:11:18.434Z,1220.62
2022-08-07T06:16:18.523Z,1406.25
2022-08-07T06:22:15.470Z,1479.38
2022-08-07T06:26:19.356Z,1631.25
2022-08-07T06:31:18.193Z,1608.75
2022-08-07T06:36:34.957Z,1856.25
2022-08-07T06:41:29.335Z,1816.88
2022-08-07T06:46:31.077Z,2041.88
2022-08-07T06:51:31.213Z,2092.50
2022-08-07T06:56:18.898Z,1811.25
2022-08-07T07:53:25.745Z,2340.00
2022-08-07T07:58:02.724Z,2160.00
2022-08-07T08:03:05.425Z,2728.12
2022-08-07T08:08:02.835Z,2964.38
2022-08-07T08:13:03.068Z,2981.25
2022-08-07T08:18:17.774Z,2896.88
2022-08-07T08:23:03.422Z,3037.50
2022-08-07T08:28:03.917Z,928.12
2022-08-07T08:33:03.008Z,472.50
2022-08-07T08:38:04.575Z,309.38
2022-08-07T08:43:05.213Z,270.00
2022-08-07T08:48:02.253Z,270.00
2022-08-07T08:53:02.032Z,281.25
2022-08-07T08:58:01.980Z,326.25
2022-08-07T09:03:03.916Z,337.50
2022-08-07T09:08:01.858Z,365.62
2022-08-07T09:13:02.235Z,303.75
2022-08-07T09:18:09.899Z,303.75
2022-08-07T09:24:32.439Z,281.25
2022-08-07T09:28:03.092Z,281.25
2022-08-07T09:33:05.441Z,303.75
2022-08-07T09:38:02.459Z,309.38
2022-08-07T09:43:12.224Z,298.12
2022-08-07T09:48:06.186Z,286.88
2022-08-07T09:53:02.259Z,258.75
2022-08-07T09:58:01.220Z,258.75
2022-08-07T10:03:07.839Z,264.38
2022-08-07T10:19:01.828Z,275.62
2022-08-07T10:24:06.342Z,236.25
2022-08-07T10:28:38.602Z,241.88
2022-08-07T10:34:14.342Z,236.25
2022-08-07T10:38:48.023Z,236.25
2022-08-07T10:43:38.371Z,236.25
2022-08-07T10:48:37.331Z,236.25
2022-08-07T10:53:44.101Z,230.62
2022-08-07T10:58:40.393Z,230.62
2022-08-07T11:03:48.253Z,230.62
2022-08-07T11:08:41.082Z,230.62
2022-08-07T11:14:44.812Z,225.00
2022-08-07T11:18:37.956Z,225.00
2022-08-07T11:23:38.784Z,219.38
2022-08-07T11:28:39.060Z,219.38
2022-08-07T11:33:59.415Z,219.38
2022-08-07T11:38:37.987Z,219.38
2022-08-07T11:43:54.465Z,225.00
2022-08-07T11:48:37.692Z,225.00
2022-08-07T11:53:36.516Z,230.62
2022-08-07T11:58:36.589Z,219.38
2022-08-07T12:03:42.165Z,219.38
2022-08-07T12:08:40.373Z,219.38
2022-08-07T12:13:37.828Z,219.38
2022-08-07T12:18:36.256Z,219.38
2022-08-07T12:24:06.176Z,219.38
2022-08-07T12:28:37.138Z,225.00
2022-08-07T12:34:01.526Z,225.00
2022-08-07T12:38:42.844Z,225.00
2022-08-07T12:44:01.850Z,230.62
2022-08-07T12:48:41.524Z,225.00
2022-08-07T12:54:54.640Z,230.62
2022-08-07T12:59:54.177Z,236.25
2022-08-07T15:42:43.525Z,438.75
2022-08-07T15:47:42.751Z,320.62
2022-08-07T15:52:30.800Z,230.62
2022-08-07T15:57:40.270Z,208.12
2022-08-07T16:02:23.628Z,196.88
2022-08-07T16:07:32.053Z,185.62
2022-08-07T16:12:29.219Z,185.62
2022-08-07T16:18:00.682Z,185.62
2022-08-07T16:22:33.391Z,180.00
2022-08-07T16:27:22.920Z,174.38
2022-08-07T16:32:35.786Z,168.75
2022-08-07T16:38:03.753Z,168.75
2022-08-07T16:42:22.710Z,163.12
2022-08-07T16:47:45.508Z,157.50
2022-08-07T16:52:51.274Z,151.88
2022-08-07T16:57:28.834Z,146.25
2022-08-07T17:02:28.359Z,140.62
2022-08-07T17:07:51.357Z,140.62
2022-08-07T17:12:45.198Z,135.00
2022-08-07T17:17:21.889Z,129.38
2022-08-07T17:22:30.174Z,129.38
2022-08-07T17:27:22.202Z,123.75
2022-08-07T17:32:30.824Z,112.50
2022-08-07T17:38:05.461Z,106.88
2022-08-07T17:42:24.639Z,101.25
2022-08-07T17:47:41.881Z,95.62
2022-08-07T17:52:21.601Z,90.00
2022-08-07T17:57:21.411Z,84.38
2022-08-07T18:02:26.369Z,78.75
2022-08-07T18:07:24.617Z,73.12
2022-08-07T18:12:30.654Z,67.50
2022-08-07T18:17:21.204Z,56.25
2022-08-07T18:22:26.420Z,50.62
2022-08-07T18:27:20.912Z,39.38
2022-08-07T18:32:19.970Z,33.75
2022-08-07T23:29:43.679Z,0.00
2022-08-07T23:34:36.006Z,0.00
2022-08-07T23:39:01.253Z,0.00
2022-08-07T23:44:00.068Z,0.00
2022-08-07T23:49:00.065Z,0.00
2022-08-07T23:54:00.021Z,0.00
2022-08-07T23:59:00.188Z,0.00
